Flight Track Log - Related Links

Times and Time Zones

All times are in EST time to prevent confusion due to time zone crossing. See the AIP1598 flight status page for this flight to view local times or setup timezone preferences in your user account.

Time Position Orientation Groundspeed Altitude Reporting Facility
EST Latitude Longitude Course Direction KTS MPH feet Rate Location/Type
Wed 07:58:00 PM 46.9028 -114.0886 107° East 133 153 7,200  Level Salt Lake Center
Wed 07:59:02 PM 46.8936 -114.0294 103° East 151 174 9,700 2,537 Climbing Salt Lake Center
Wed 08:00:03 PM 46.8828 -113.9614 103° East 159 183 12,400 2,585 Climbing Salt Lake Center
Wed 08:01:05 PM 46.8717 -113.8944 104° East 169 194 15,000 2,537 Climbing Salt Lake Center
Wed 08:02:06 PM 46.8556 -113.8247 109° East 179 206 17,600 2,390 Climbing Salt Lake Center
Wed 08:03:00 PM 46.8157 -113.5147 107° East  Level Estimated
Wed 08:03:08 PM 46.8392 -113.7464 107° East 186 214 19,900  Level Salt Lake Center
Wed 08:04:10 PM 46.8258 -113.6675 104° East 198 228 20,900 488 Climbing Salt Lake Center
Wed 08:05:11 PM 46.8069 -113.5592 104° East 270 311 20,900  Level Salt Lake Center
Wed 08:06:13 PM 46.7883 -113.4406 103° East 296 341 20,900 -32 Level Salt Lake Center
Wed 08:08:16 PM 46.7606 -113.1961 99° East 306 352 20,800 -32 Descending Salt Lake Center
Wed 08:09:18 PM 46.7406 -113.0750 104° East 308 354 20,800 48 Level Salt Lake Center
Wed 08:10:20 PM 46.7242 -112.9567 101° East 298 343 20,900 49 Climbing Salt Lake Center
Wed 08:11:21 PM 46.6950 -112.8233 108° East 303 349 20,900  Level Salt Lake Center
Wed 08:12:23 PM 46.6703 -112.7117 108° East 293 337 20,900 48 Level Salt Lake Center
Wed 08:13:25 PM 46.6489 -112.5961 105° East 296 341 21,000 48 Climbing Salt Lake Center
Wed 08:14:27 PM 46.6278 -112.4819 105° East 293 337 21,000 -49 Level Salt Lake Center
Wed 08:15:28 PM 46.6064 -112.3667 105° East 295 339 20,900  Descending Salt Lake Center
Wed 08:16:30 PM 46.5839 -112.2289 103° East 294 338 21,000 48 Climbing Salt Lake Center
Wed 08:17:32 PM 46.5639 -112.1131 104° East 295 339 21,000  Level Salt Lake Center
Wed 08:18:33 PM 46.5397 -112.0000 107° East 295 339 21,000  Level Salt Lake Center
Wed 08:19:35 PM 46.5186 -111.8839 105° East 299 344 21,000  Level Salt Lake Center
Wed 08:20:37 PM 46.4939 -111.7708 108° East 297 342 21,000  Level Salt Lake Center
Wed 08:21:39 PM 46.4714 -111.6578 106° East 294 338 21,000  Level Salt Lake Center
Wed 08:22:40 PM 46.4439 -111.5189 106° East 300 345 21,000  Level Salt Lake Center
Wed 08:23:42 PM 46.4219 -111.4014 105° East 293 337 21,000  Level Salt Lake Center
Wed 08:24:44 PM 46.3986 -111.2836 106° East 298 343 21,000  Level Salt Lake Center
Wed 08:25:46 PM 46.3744 -111.1661 107° East 298 343 21,000 -49 Level Salt Lake Center
Wed 08:26:47 PM 46.3511 -111.0486 106° East 298 343 20,900  Descending Salt Lake Center
Wed 08:27:49 PM 46.3325 -110.9400 104° East 298 343 21,000 97 Climbing Salt Lake Center
Wed 08:28:51 PM 46.3053 -110.8275 109° East 298 343 21,100 49 Climbing Salt Lake Center
Wed 08:29:52 PM 46.2836 -110.7106 105° East 300 345 21,100 -49 Level Salt Lake Center
Wed 08:30:54 PM 46.2519 -110.5753 109° East 299 344 21,000  Descending Salt Lake Center
Wed 08:31:56 PM 46.2294 -110.4589 106° East 300 345 21,100 -48 Climbing Salt Lake Center
Wed 08:32:58 PM 46.2019 -110.3461 109° East 300 345 20,900 -49 Descending Salt Lake Center
Wed 08:33:59 PM 46.1794 -110.2297 106° East 301 346 21,000 49 Climbing Salt Lake Center
Wed 08:35:01 PM 46.1542 -110.1153 108° East 301 346 21,000  Level Salt Lake Center
Wed 08:36:03 PM 46.1258 -110.0031 110° East 300 345 21,000 -341 Level Salt Lake Center
Wed 08:37:04 PM 46.0994 -109.8867 108° East 303 349 20,300 -683 Descending Salt Lake Center
Wed 08:38:06 PM 46.0683 -109.7436 107° East 318 366 19,600 -871 Descending Salt Lake Center
Wed 08:39:08 PM 46.0467 -109.6161 104° East 311 358 18,500 -927 Descending Salt Lake Center
Wed 08:40:09 PM 46.0464 -109.4964 90° East 301 346 17,700 -829 Descending Salt Lake Center
Wed 08:41:11 PM 46.0503 -109.3744 87° East 305 351 16,800 -919 Descending Salt Lake Center
Wed 08:42:13 PM 46.0622 -109.2478 82° East 302 348 15,800 -732 Descending Salt Lake Center
Wed 08:43:14 PM 46.0850 -109.1369 73° East 298 343 15,300 -634 Descending Salt Lake Center
Wed 08:44:16 PM 46.0617 -109.0136 105° East 299 344 14,500 -871 Descending Salt Lake Center
Wed 08:45:18 PM 46.0256 -108.9078 116° Southeast 300 345 13,500 -1,171 Descending Salt Lake Center
Wed 08:46:19 PM 45.9756 -108.8022 124° Southeast 300 345 12,100 -1,366 Descending Salt Lake Center
Wed 08:47:21 PM 45.9314 -108.7014 122° Southeast 300 345 10,700 -1,742 Descending Salt Lake Center
Wed 08:48:23 PM 45.8903 -108.6056 122° Southeast 287 330 8,500 -2,244 Descending Salt Lake Center
Wed 08:49:24 PM 45.8525 -108.5094 119° Southeast 261 300 6,100 -1,854 Descending Salt Lake Center
Wed 08:50:26 PM 45.8117 -108.4789 152° Southeast 168 193 4,700 -1,268 Descending Salt Lake Center
Wed 08:51:27 PM 45.8022 -108.5181 251° West 122 140 3,500 -1,180 Descending Salt Lake Center
Wed 08:53:00 PM 45.8000 -108.5333 270° West  Level FlightAware Approximate

Login

Don't have an account? Register now (free) for customized features, flight alerts, and more!